Weather at North Ronaldsay Airport

Public forecast

Using degrees Celsius for public forecast. Weather courtesy of forecast.io.

Closest aviation weather report (METAR) to North Ronaldsay Airport

Closest report is Kirkwall Airport, 28.5 nm (52.9 km) SSW.

2024/07/17 13:50 (retrieved 25 minutes ago)

EGPA 171350Z 27007KT 220V310 9999 FEW022 17/09 Q1016

Closest aviation forecast (TAF) to North Ronaldsay Airport

Closest forecast is RAF Lossiemouth, 103.8 nm (192.1 km) SSW.

2024/07/17 15:00 (retrieved 0 seconds ago)

TAF EGQS 171353Z 1715/1809 29010KT 9999 FEW035 BKN045 PROB30 TEMPO 1806/1809 5000 SHRA